Time;durP1;ratioP1;P1;durP2;ratioP2;P2;SDS_P1;SDS_P2;PMS_P1;PMS_P2;Temp;Humidity;BMP_temperature;BMP_pressure;BME280_temperature;BME280_humidity;BME280_pressure;Samples;Min_cycle;Max_cycle;Signal;HPM_P1;HPM_P2
2023/04/17 00:00:42;;;;;;;19.20;12.70;;;;;;;;;;6216243;23;20383;-66
2023/04/17 00:03:10;;;;;;;16.73;12.20;;;;;;;;;;6216188;23;20722;-65
2023/04/17 00:05:37;;;;;;;13.50;11.23;;;;;;;;;;6216080;23;20427;-65
2023/04/17 00:08:03;;;;;;;17.43;12.20;;;;;;;;;;6189287;23;20402;-65
2023/04/17 00:10:29;;;;;;;20.53;13.13;;;;;;;;;;6215784;23;20849;-65
2023/04/17 00:12:55;;;;;;;18.67;11.77;;;;;;;;;;6215802;23;20382;-66
2023/04/17 00:15:21;;;;;;;27.83;15.30;;;;;;;;;;6215841;23;20380;-65
2023/04/17 00:17:47;;;;;;;16.60;10.83;;;;;;;;;;6215759;23;20379;-66
2023/04/17 00:20:13;;;;;;;14.10;11.17;;;;;;;;;;6216072;23;20470;-65
2023/04/17 00:22:39;;;;;;;13.53;10.30;;;;;;;;;;6216746;23;20383;-65
2023/04/17 00:25:06;;;;;;;14.97;12.00;;;;;;;;;;6215726;23;20800;-65
2023/04/17 00:27:32;;;;;;;15.97;11.20;;;;;;;;;;6215556;23;20783;-65
2023/04/17 00:29:58;;;;;;;13.30;10.17;;;;;;;;;;6215644;23;20402;-65
2023/04/17 00:32:24;;;;;;;16.10;11.80;;;;;;;;;;6215671;23;20718;-65
2023/04/17 00:34:50;;;;;;;16.43;11.60;;;;;;;;;;6216092;23;20394;-65
2023/04/17 00:37:16;;;;;;;15.77;12.37;;;;;;;;;;6215850;23;20390;-65
2023/04/17 00:39:42;;;;;;;18.57;11.97;;;;;;;;;;6215516;23;20462;-65
2023/04/17 00:42:08;;;;;;;12.73;11.17;;;;;;;;;;6215386;23;20430;-65
2023/04/17 00:44:34;;;;;;;9.97;8.97;;;;;;;;;;6215410;23;20377;-65
2023/04/17 00:47:00;;;;;;;16.17;10.33;;;;;;;;;;6215725;23;20379;-65
2023/04/17 00:49:28;;;;;;;14.33;11.17;;;;;;;;;;6215750;23;20849;-65
2023/04/17 00:51:54;;;;;;;13.40;10.60;;;;;;;;;;6188867;23;20382;-65
2023/04/17 00:54:20;;;;;;;12.53;10.00;;;;;;;;;;6215428;23;20385;-65
2023/04/17 00:59:50;;;;;;;10.50;8.40;;;;;;;;;;6215440;23;20510;-65
2023/04/17 01:02:16;;;;;;;13.77;10.07;;;;;;;;;;6215291;23;20394;-65
2023/04/17 01:04:42;;;;;;;12.80;10.70;;;;;;;;;;6215394;23;20937;-65
2023/04/17 01:07:08;;;;;;;13.17;11.13;;;;;;;;;;6215356;23;20892;-65
2023/04/17 01:09:35;;;;;;;16.57;11.83;;;;;;;;;;6215329;23;20764;-65
2023/04/17 01:12:16;;;;;;;16.20;12.27;;;;;;;;;;6215320;23;20715;-65
2023/04/17 01:14:42;;;;;;;16.07;13.10;;;;;;;;;;6215340;23;20371;-65
2023/04/17 01:17:09;;;;;;;18.97;14.37;;;;;;;;;;6215269;23;20433;-65
2023/04/17 01:19:35;;;;;;;16.30;12.53;;;;;;;;;;6215649;23;20382;-65
2023/04/17 01:22:01;;;;;;;17.47;12.73;;;;;;;;;;6215384;23;20376;-65
2023/04/17 01:24:26;;;;;;;18.93;12.93;;;;;;;;;;6215502;23;20382;-65
2023/04/17 01:26:52;;;;;;;18.47;14.43;;;;;;;;;;6215848;23;20449;-65
2023/04/17 01:29:18;;;;;;;14.83;12.07;;;;;;;;;;6215492;23;20387;-65
2023/04/17 01:31:44;;;;;;;14.00;12.27;;;;;;;;;;6215265;23;20863;-65
2023/04/17 01:34:10;;;;;;;17.00;13.07;;;;;;;;;;6215551;23;20465;-65
2023/04/17 01:36:36;;;;;;;17.40;12.90;;;;;;;;;;6215899;23;20371;-65
2023/04/17 01:39:03;;;;;;;13.27;10.27;;;;;;;;;;6215903;23;20429;-65
2023/04/17 01:41:29;;;;;;;13.20;11.83;;;;;;;;;;6215495;23;20383;-65
2023/04/17 01:43:55;;;;;;;19.77;12.90;;;;;;;;;;6214987;23;20431;-65
2023/04/17 01:46:21;;;;;;;17.57;13.90;;;;;;;;;;6215793;23;20466;-65
2023/04/17 01:48:46;;;;;;;18.03;14.30;;;;;;;;;;6215471;23;20371;-65
2023/04/17 01:51:12;;;;;;;17.10;12.77;;;;;;;;;;6215093;23;20379;-65
2023/04/17 01:53:39;;;;;;;16.23;13.27;;;;;;;;;;6215442;23;20376;-65
2023/04/17 01:56:05;;;;;;;15.10;12.70;;;;;;;;;;6215849;23;20387;-65
2023/04/17 01:58:31;;;;;;;18.10;14.10;;;;;;;;;;6215021;23;20425;-65
2023/04/17 02:00:57;;;;;;;20.37;15.03;;;;;;;;;;6216489;23;20415;-65
2023/04/17 02:03:23;;;;;;;12.07;9.87;;;;;;;;;;6217393;23;20378;-65
2023/04/17 02:05:49;;;;;;;15.90;13.20;;;;;;;;;;6217386;23;20979;-67
2023/04/17 02:08:15;;;;;;;9.33;8.43;;;;;;;;;;6217413;23;20375;-65
2023/04/17 02:10:42;;;;;;;19.13;15.50;;;;;;;;;;6217318;23;20768;-65
2023/04/17 02:13:08;;;;;;;20.43;15.47;;;;;;;;;;6216941;23;20401;-65
2023/04/17 02:15:34;;;;;;;19.37;15.20;;;;;;;;;;6217036;23;20383;-66
2023/04/17 02:18:00;;;;;;;19.67;14.20;;;;;;;;;;6217226;23;20372;-65
2023/04/17 02:20:26;;;;;;;18.60;14.53;;;;;;;;;;6217207;23;20498;-65
2023/04/17 02:22:52;;;;;;;16.63;14.40;;;;;;;;;;6217194;23;20693;-65
2023/04/17 02:25:18;;;;;;;24.60;13.80;;;;;;;;;;6217158;23;20449;-65
2023/04/17 02:27:44;;;;;;;18.83;14.00;;;;;;;;;;6217119;23;20383;-65
2023/04/17 02:30:10;;;;;;;20.50;14.73;;;;;;;;;;6217491;23;20659;-65
2023/04/17 02:32:36;;;;;;;22.60;15.70;;;;;;;;;;6216816;23;20883;-65
2023/04/17 02:35:02;;;;;;;20.10;15.17;;;;;;;;;;6217173;23;20367;-65
2023/04/17 02:37:28;;;;;;;18.87;14.37;;;;;;;;;;6216730;23;20429;-65
2023/04/17 02:39:55;;;;;;;22.50;15.20;;;;;;;;;;6217064;23;20399;-65
2023/04/17 02:42:21;;;;;;;18.70;14.60;;;;;;;;;;6216684;23;20440;-65
2023/04/17 02:44:46;;;;;;;17.10;12.97;;;;;;;;;;6216920;23;20419;-65
2023/04/17 02:47:12;;;;;;;17.63;14.60;;;;;;;;;;6217079;23;20375;-65
2023/04/17 02:49:40;;;;;;;16.30;12.47;;;;;;;;;;6217264;23;20374;-65
2023/04/17 02:52:06;;;;;;;23.57;14.23;;;;;;;;;;6216951;23;20449;-65
2023/04/17 02:54:32;;;;;;;15.60;13.07;;;;;;;;;;6217199;23;20840;-65
2023/04/17 02:56:58;;;;;;;17.47;14.73;;;;;;;;;;6216884;23;20445;-65
2023/04/17 02:59:27;;;;;;;15.70;14.00;;;;;;;;;;6216925;23;20381;-65
2023/04/17 03:01:53;;;;;;;15.57;12.97;;;;;;;;;;6216503;23;20616;-65
2023/04/17 03:04:20;;;;;;;22.63;16.50;;;;;;;;;;6216798;23;20422;-65
2023/04/17 03:06:46;;;;;;;32.80;20.40;;;;;;;;;;6217153;23;20853;-65
2023/04/17 03:09:13;;;;;;;22.03;16.43;;;;;;;;;;6216341;23;20376;-65
2023/04/17 03:11:39;;;;;;;22.00;15.83;;;;;;;;;;6215721;23;20383;-65
2023/04/17 03:14:05;;;;;;;23.10;15.73;;;;;;;;;;6216316;23;20462;-65
2023/04/17 03:16:31;;;;;;;22.33;16.83;;;;;;;;;;6216777;23;20414;-65
2023/04/17 03:18:57;;;;;;;22.17;16.00;;;;;;;;;;6216378;23;20833;-65
2023/04/17 03:21:23;;;;;;;22.10;16.47;;;;;;;;;;6216622;23;20407;-65
2023/04/17 03:23:49;;;;;;;19.97;15.00;;;;;;;;;;6216658;23;20383;-65
2023/04/17 03:26:15;;;;;;;20.83;15.80;;;;;;;;;;6216201;23;20430;-65
2023/04/17 03:28:41;;;;;;;18.30;14.60;;;;;;;;;;6216706;23;20384;-65
2023/04/17 03:31:07;;;;;;;20.73;14.63;;;;;;;;;;6217014;23;20428;-65
2023/04/17 03:33:33;;;;;;;19.63;15.70;;;;;;;;;;6216301;23;20368;-65
2023/04/17 03:35:59;;;;;;;21.67;16.17;;;;;;;;;;6216349;23;20386;-65
2023/04/17 03:38:25;;;;;;;19.07;13.47;;;;;;;;;;6216279;23;20370;-65
2023/04/17 03:40:51;;;;;;;18.87;14.70;;;;;;;;;;6216203;23;20363;-65
2023/04/17 03:43:17;;;;;;;22.37;14.53;;;;;;;;;;6216185;23;20484;-65
2023/04/17 03:45:43;;;;;;;22.00;14.97;;;;;;;;;;6216076;23;20470;-65
2023/04/17 03:48:09;;;;;;;21.27;15.80;;;;;;;;;;6216547;23;20382;-65
2023/04/17 03:50:35;;;;;;;19.27;14.50;;;;;;;;;;6216475;23;20385;-65
2023/04/17 03:53:01;;;;;;;19.20;15.00;;;;;;;;;;6216077;23;20437;-65
2023/04/17 03:55:27;;;;;;;21.80;15.70;;;;;;;;;;6216521;23;20383;-65
2023/04/17 03:57:53;;;;;;;22.43;15.63;;;;;;;;;;6216110;23;20429;-65
2023/04/17 04:00:20;;;;;;;19.80;14.80;;;;;;;;;;6216019;23;20438;-65
2023/04/17 04:02:46;;;;;;;17.13;15.17;;;;;;;;;;6216396;23;20401;-65
2023/04/17 04:05:12;;;;;;;18.87;14.80;;;;;;;;;;6216243;23;20466;-65
2023/04/17 04:07:38;;;;;;;20.00;15.30;;;;;;;;;;6216317;23;20379;-65
2023/04/17 04:10:04;;;;;;;19.27;14.13;;;;;;;;;;6216102;23;20375;-65
2023/04/17 04:12:30;;;;;;;17.80;14.73;;;;;;;;;;6216290;23;20455;-65
2023/04/17 04:14:56;;;;;;;18.07;13.53;;;;;;;;;;6189348;23;20426;-65
2023/04/17 04:17:22;;;;;;;19.53;15.63;;;;;;;;;;6215927;23;20376;-65
2023/04/17 04:19:48;;;;;;;16.10;13.33;;;;;;;;;;6216282;23;20375;-65
2023/04/17 04:22:14;;;;;;;19.67;15.60;;;;;;;;;;6215717;23;20402;-65
2023/04/17 04:24:40;;;;;;;18.50;15.17;;;;;;;;;;6216421;23;20375;-65
2023/04/17 04:27:06;;;;;;;23.03;15.13;;;;;;;;;;6216096;23;20406;-65
2023/04/17 04:29:33;;;;;;;18.57;15.90;;;;;;;;;;6215783;23;20893;-66
2023/04/17 04:32:00;;;;;;;19.67;15.90;;;;;;;;;;6216081;23;20402;-65
2023/04/17 04:34:28;;;;;;;18.97;15.03;;;;;;;;;;6216019;23;20375;-65
2023/04/17 04:36:54;;;;;;;20.17;14.53;;;;;;;;;;6216028;23;20402;-65
2023/04/17 04:39:20;;;;;;;22.10;17.13;;;;;;;;;;6216279;23;20670;-65
2023/04/17 04:41:48;;;;;;;23.87;16.43;;;;;;;;;;6215655;23;20382;-65
2023/04/17 04:44:14;;;;;;;25.67;17.20;;;;;;;;;;6216368;23;20358;-65
2023/04/17 04:46:40;;;;;;;14.90;12.17;;;;;;;;;;6215583;23;20442;-65
2023/04/17 04:49:06;;;;;;;20.33;16.63;;;;;;;;;;6215694;23;20688;-65
2023/04/17 04:51:33;;;;;;;20.23;17.80;;;;;;;;;;6215551;23;20504;-65
2023/04/17 04:53:59;;;;;;;19.67;16.63;;;;;;;;;;6215868;23;20454;-68
2023/04/17 04:56:25;;;;;;;21.27;17.17;;;;;;;;;;6188543;23;20419;-65
2023/04/17 04:58:51;;;;;;;32.43;18.50;;;;;;;;;;6215643;23;20441;-65
2023/04/17 05:01:17;;;;;;;27.67;17.60;;;;;;;;;;6215472;23;20373;-65
2023/04/17 05:03:43;;;;;;;22.30;17.93;;;;;;;;;;6215550;23;20395;-65
2023/04/17 05:06:10;;;;;;;24.60;17.37;;;;;;;;;;6215680;23;20442;-64
2023/04/17 05:08:36;;;;;;;18.43;16.33;;;;;;;;;;6216154;23;20367;-65
2023/04/17 05:11:02;;;;;;;23.33;17.03;;;;;;;;;;6215365;23;20375;-65
2023/04/17 05:13:29;;;;;;;23.27;16.67;;;;;;;;;;6215844;23;20374;-65
2023/04/17 05:15:55;;;;;;;22.47;16.27;;;;;;;;;;6215458;23;20857;-65
2023/04/17 05:18:21;;;;;;;20.10;14.40;;;;;;;;;;6215739;23;20413;-65
2023/04/17 05:20:47;;;;;;;22.00;17.17;;;;;;;;;;6215719;23;20410;-64
2023/04/17 05:23:13;;;;;;;19.03;17.00;;;;;;;;;;6215458;23;20842;-65
2023/04/17 05:25:39;;;;;;;21.53;16.03;;;;;;;;;;6215586;23;20800;-65
2023/04/17 05:28:06;;;;;;;21.97;14.70;;;;;;;;;;6215493;23;20410;-65
2023/04/17 05:30:32;;;;;;;22.77;17.10;;;;;;;;;;6215675;23;20383;-65
2023/04/17 05:32:59;;;;;;;23.73;15.37;;;;;;;;;;6215713;23;20399;-64
2023/04/17 05:35:26;;;;;;;24.93;17.50;;;;;;;;;;6216640;23;20383;-65
2023/04/17 05:37:52;;;;;;;22.87;17.20;;;;;;;;;;6217589;23;20371;-65
2023/04/17 05:40:18;;;;;;;25.03;16.37;;;;;;;;;;6217609;23;20378;-64
2023/04/17 05:42:44;;;;;;;24.17;18.67;;;;;;;;;;6217264;23;20422;-65
2023/04/17 05:45:13;;;;;;;24.87;17.87;;;;;;;;;;6217632;23;20526;-65
2023/04/17 05:47:39;;;;;;;24.70;17.03;;;;;;;;;;6217270;23;20851;-65
2023/04/17 05:50:06;;;;;;;26.43;18.07;;;;;;;;;;6217567;23;20424;-65
2023/04/17 05:52:32;;;;;;;26.90;18.43;;;;;;;;;;6217320;23;20410;-65
2023/04/17 05:54:58;;;;;;;23.20;17.07;;;;;;;;;;6217957;23;20379;-65
2023/04/17 05:57:24;;;;;;;23.70;18.90;;;;;;;;;;6217187;23;20406;-65
2023/04/17 05:59:50;;;;;;;24.80;17.70;;;;;;;;;;6217245;23;20387;-65
2023/04/17 06:02:16;;;;;;;29.17;20.53;;;;;;;;;;6217124;23;20379;-65
2023/04/17 06:04:43;;;;;;;30.20;19.10;;;;;;;;;;6190583;23;20423;-64
2023/04/17 06:07:10;;;;;;;22.00;17.53;;;;;;;;;;6217015;23;20383;-65
2023/04/17 06:09:36;;;;;;;34.40;18.13;;;;;;;;;;6217096;23;20864;-65
2023/04/17 06:12:03;;;;;;;23.80;17.60;;;;;;;;;;6217347;23;20449;-67
2023/04/17 06:14:32;;;;;;;24.50;17.67;;;;;;;;;;6217150;23;20387;-65
2023/04/17 06:16:58;;;;;;;22.80;18.43;;;;;;;;;;6217223;23;20410;-65
2023/04/17 06:19:24;;;;;;;23.20;18.17;;;;;;;;;;6216921;23;20379;-66
2023/04/17 06:21:50;;;;;;;22.93;18.07;;;;;;;;;;6216786;23;20529;-65
2023/04/17 06:24:17;;;;;;;24.37;18.87;;;;;;;;;;6216833;23;20387;-67
2023/04/17 06:26:43;;;;;;;19.33;16.87;;;;;;;;;;6217036;23;20430;-65
2023/04/17 06:29:10;;;;;;;21.23;16.80;;;;;;;;;;6217098;23;20375;-66
2023/04/17 06:31:36;;;;;;;21.50;15.93;;;;;;;;;;6216980;23;20371;-66
2023/04/17 06:34:02;;;;;;;25.97;16.97;;;;;;;;;;6216663;23;20450;-66
2023/04/17 06:36:28;;;;;;;20.73;17.17;;;;;;;;;;6216850;23;20402;-66
2023/04/17 06:38:54;;;;;;;21.27;16.90;;;;;;;;;;6217082;23;20431;-66
2023/04/17 06:41:20;;;;;;;19.83;15.90;;;;;;;;;;6217003;23;20506;-67
2023/04/17 06:43:46;;;;;;;24.70;18.13;;;;;;;;;;6216618;23;20909;-66
2023/04/17 06:46:12;;;;;;;27.67;18.40;;;;;;;;;;6216909;23;20427;-65
2023/04/17 06:48:37;;;;;;;18.60;15.40;;;;;;;;;;6216416;23;20827;-66
2023/04/17 06:51:03;;;;;;;19.07;15.27;;;;;;;;;;6216439;23;20445;-68
2023/04/17 06:53:29;;;;;;;20.83;16.73;;;;;;;;;;6216630;23;20367;-66
2023/04/17 06:55:55;;;;;;;23.20;18.03;;;;;;;;;;6216906;23;20723;-68
2023/04/17 06:58:21;;;;;;;21.50;16.13;;;;;;;;;;6216667;23;20415;-66
2023/04/17 07:00:47;;;;;;;22.40;17.20;;;;;;;;;;6216746;23;20383;-66
2023/04/17 07:03:13;;;;;;;23.17;17.17;;;;;;;;;;6216531;23;20367;-66
2023/04/17 07:05:40;;;;;;;21.97;17.10;;;;;;;;;;6216376;23;20438;-66
2023/04/17 07:08:06;;;;;;;19.50;15.97;;;;;;;;;;6216462;23;20402;-66
2023/04/17 07:10:32;;;;;;;25.17;16.30;;;;;;;;;;6216417;23;20906;-66
2023/04/17 07:12:58;;;;;;;20.00;16.30;;;;;;;;;;6216788;23;20875;-66
2023/04/17 07:15:29;;;;;;;20.60;15.77;;;;;;;;;;6216487;23;20375;-65
2023/04/17 07:17:55;;;;;;;19.90;15.83;;;;;;;;;;6216105;23;20861;-66
2023/04/17 07:20:21;;;;;;;26.27;18.27;;;;;;;;;;6216480;23;20390;-65
2023/04/17 07:22:48;;;;;;;22.37;14.93;;;;;;;;;;6216216;23;20398;-65
2023/04/17 07:25:14;;;;;;;21.23;19.03;;;;;;;;;;6216287;23;20423;-66
2023/04/17 07:27:41;;;;;;;19.50;15.13;;;;;;;;;;6216146;23;20901;-66
2023/04/17 07:30:07;;;;;;;18.13;15.30;;;;;;;;;;6216125;23;20386;-66
2023/04/17 07:32:33;;;;;;;20.87;14.77;;;;;;;;;;6216304;23;20411;-66
2023/04/17 07:34:59;;;;;;;19.43;13.50;;;;;;;;;;6216431;23;20673;-66
2023/04/17 07:37:25;;;;;;;20.17;16.23;;;;;;;;;;6215981;23;20463;-66
2023/04/17 07:39:52;;;;;;;19.90;15.37;;;;;;;;;;6215735;23;20371;-73
2023/04/17 07:42:18;;;;;;;20.40;14.67;;;;;;;;;;6215781;23;20747;-72
2023/04/17 07:44:44;;;;;;;16.43;14.20;;;;;;;;;;6216285;23;20883;-67
2023/04/17 07:47:10;;;;;;;17.10;14.10;;;;;;;;;;6216496;23;20447;-66
2023/04/17 07:49:38;;;;;;;14.73;13.27;;;;;;;;;;6215964;23;20755;-69
2023/04/17 07:52:04;;;;;;;25.70;15.13;;;;;;;;;;6216320;23;20390;-66
2023/04/17 07:54:30;;;;;;;19.37;14.57;;;;;;;;;;6215913;23;20390;-66
2023/04/17 07:56:56;;;;;;;14.87;13.07;;;;;;;;;;6215984;23;20375;-67
2023/04/17 07:59:22;;;;;;;20.40;15.27;;;;;;;;;;6215848;23;20821;-70
2023/04/17 08:01:48;;;;;;;20.67;12.80;;;;;;;;;;6215780;23;20710;-66
2023/04/17 08:04:15;;;;;;;17.40;12.20;;;;;;;;;;6215793;23;20375;-66
2023/04/17 08:06:41;;;;;;;18.50;14.10;;;;;;;;;;6215630;23;20438;-66
2023/04/17 08:09:08;;;;;;;14.13;11.90;;;;;;;;;;6215953;23;20425;-66
2023/04/17 08:11:34;;;;;;;14.13;12.77;;;;;;;;;;6215543;23;20693;-66
2023/04/17 08:14:00;;;;;;;15.10;12.17;;;;;;;;;;6215940;23;20382;-71
2023/04/17 08:16:26;;;;;;;14.20;11.03;;;;;;;;;;6216016;23;20458;-68
2023/04/17 08:18:52;;;;;;;12.80;11.40;;;;;;;;;;6215932;23;20382;-66
2023/04/17 08:21:18;;;;;;;16.67;12.67;;;;;;;;;;6215343;23;20379;-66
2023/04/17 08:23:43;;;;;;;14.20;10.80;;;;;;;;;;6215959;23;20458;-66
2023/04/17 08:26:10;;;;;;;11.80;10.60;;;;;;;;;;6215424;23;20435;-61
2023/04/17 08:28:36;;;;;;;12.97;11.70;;;;;;;;;;6214340;23;20378;-65
2023/04/17 08:31:02;;;;;;;11.37;10.27;;;;;;;;;;6215537;23;20398;-65
2023/04/17 08:33:28;;;;;;;12.33;10.60;;;;;;;;;;6215813;23;20383;-65
2023/04/17 08:35:54;;;;;;;10.50;9.50;;;;;;;;;;6215500;23;20382;-66
2023/04/17 08:38:20;;;;;;;11.07;9.97;;;;;;;;;;6215780;23;20379;-66
2023/04/17 08:40:50;;;;;;;13.47;10.67;;;;;;;;;;6215761;23;20912;-66
2023/04/17 08:43:18;;;;;;;11.93;10.63;;;;;;;;;;6215442;23;20513;-67
2023/04/17 08:45:55;;;;;;;12.40;9.90;;;;;;;;;;6215671;23;20517;-67
2023/04/17 08:48:22;;;;;;;12.83;11.30;;;;;;;;;;6213740;23;20395;-67
2023/04/17 08:50:48;;;;;;;11.37;10.20;;;;;;;;;;6215345;23;20363;-66
2023/04/17 08:53:15;;;;;;;11.00;9.70;;;;;;;;;;6215481;23;20428;-66
2023/04/17 08:55:41;;;;;;;9.60;8.80;;;;;;;;;;6215458;23;20363;-66
2023/04/17 08:58:08;;;;;;;10.43;9.40;;;;;;;;;;6215886;23;20390;-66
2023/04/17 09:00:38;;;;;;;10.87;9.77;;;;;;;;;;6215746;23;20405;-66
2023/04/17 09:03:06;;;;;;;10.30;9.20;;;;;;;;;;6215220;23;20430;-66
2023/04/17 09:05:32;;;;;;;9.90;8.93;;;;;;;;;;6215015;23;20469;-66
2023/04/17 09:08:11;;;;;;;10.30;9.27;;;;;;;;;;6215580;23;20403;-66
2023/04/17 09:10:48;;;;;;;9.80;8.80;;;;;;;;;;6213615;23;20403;-66
2023/04/17 09:13:15;;;;;;;10.13;8.13;;;;;;;;;;6216450;23;20374;-66
2023/04/17 09:15:41;;;;;;;9.67;8.67;;;;;;;;;;6215241;23;20868;-66
2023/04/17 09:18:26;;;;;;;9.87;8.97;;;;;;;;;;6215506;23;20732;-66
2023/04/17 09:20:52;;;;;;;9.43;8.63;;;;;;;;;;6215118;23;20699;-66
2023/04/17 09:23:18;;;;;;;11.23;8.80;;;;;;;;;;6215684;23;20378;-65
2023/04/17 09:25:45;;;;;;;9.87;9.00;;;;;;;;;;6215740;23;20434;-66
2023/04/17 09:28:12;;;;;;;10.50;8.43;;;;;;;;;;6216003;23;20397;-65
2023/04/17 09:30:39;;;;;;;7.77;7.27;;;;;;;;;;6216106;23;20383;-66
2023/04/17 09:33:06;;;;;;;8.73;7.83;;;;;;;;;;6215806;23;20383;-66
2023/04/17 09:38:41;;;;;;;32.67;11.17;;;;;;;;;;6215295;23;20362;-65
2023/04/17 09:41:21;;;;;;;21.83;9.40;;;;;;;;;;6215431;23;20379;-66
2023/04/17 09:43:48;;;;;;;11.63;8.80;;;;;;;;;;6214976;23;20423;-66
2023/04/17 09:46:29;;;;;;;9.17;8.00;;;;;;;;;;6214513;23;20463;-65
2023/04/17 09:48:56;;;;;;;9.60;8.60;;;;;;;;;;6215339;23;20375;-65
2023/04/17 09:51:22;;;;;;;8.77;7.67;;;;;;;;;;6215330;23;20888;-65
2023/04/17 09:53:48;;;;;;;10.93;9.30;;;;;;;;;;6215160;23;20363;-65
2023/04/17 09:56:14;;;;;;;10.53;9.40;;;;;;;;;;6214995;23;20367;-65
2023/04/17 09:58:41;;;;;;;9.10;8.20;;;;;;;;;;6214951;23;20463;-66
2023/04/17 10:01:08;;;;;;;10.20;9.30;;;;;;;;;;6215501;23;20375;-65
2023/04/17 10:03:34;;;;;;;8.63;7.87;;;;;;;;;;6215147;23;20382;-65
2023/04/17 10:06:00;;;;;;;9.20;8.40;;;;;;;;;;6215087;23;20590;-66
2023/04/17 10:08:27;;;;;;;8.63;7.77;;;;;;;;;;6215488;23;20787;-67
2023/04/17 10:11:02;;;;;;;8.17;7.57;;;;;;;;;;6215610;23;20375;-66
2023/04/17 10:13:28;;;;;;;9.00;8.10;;;;;;;;;;6215382;23;20442;-65
2023/04/17 10:15:54;;;;;;;10.00;7.20;;;;;;;;;;6216501;23;20456;-66
2023/04/17 10:18:23;;;;;;;9.07;8.27;;;;;;;;;;6215182;23;20394;-65
2023/04/17 10:20:51;;;;;;;8.13;7.40;;;;;;;;;;6215339;23;20382;-66
2023/04/17 10:23:30;;;;;;;9.70;7.10;;;;;;;;;;6217306;23;20429;-66
2023/04/17 10:26:14;;;;;;;6.00;5.53;;;;;;;;;;6217678;23;20880;-66
2023/04/17 10:28:48;;;;;;;8.87;7.97;;;;;;;;;;6217216;23;20382;-66
2023/04/17 10:31:14;;;;;;;7.83;7.07;;;;;;;;;;6217307;23;20429;-65
2023/04/17 10:33:49;;;;;;;15.37;6.83;;;;;;;;;;6216919;23;20403;-67
2023/04/17 10:36:34;;;;;;;6.50;6.10;;;;;;;;;;6217248;23;20390;-67
2023/04/17 10:39:13;;;;;;;5.73;5.30;;;;;;;;;;6217130;23;20384;-66
2023/04/17 10:41:57;;;;;;;6.80;6.30;;;;;;;;;;6216963;23;20375;-66
2023/04/17 10:44:24;;;;;;;7.67;7.07;;;;;;;;;;6216936;23;20370;-66
2023/04/17 10:46:50;;;;;;;6.37;6.00;;;;;;;;;;6216771;23;20458;-65
2023/04/17 10:49:16;;;;;;;6.40;5.90;;;;;;;;;;6217177;23;20458;-65
2023/04/17 10:51:42;;;;;;;5.23;4.83;;;;;;;;;;6216761;23;20422;-67
2023/04/17 10:54:14;;;;;;;4.40;4.20;;;;;;;;;;6217176;23;20405;-64
2023/04/17 10:56:41;;;;;;;3.80;3.60;;;;;;;;;;6216971;23;20384;-66
2023/04/17 10:59:08;;;;;;;5.50;5.10;;;;;;;;;;6216611;23;20716;-65
2023/04/17 11:01:38;;;;;;;5.00;4.70;;;;;;;;;;6216844;23;20387;-65
2023/04/17 11:04:05;;;;;;;5.33;4.97;;;;;;;;;;6216664;23;20367;-65
2023/04/17 11:06:32;;;;;;;4.83;4.63;;;;;;;;;;6216578;23;20430;-65
2023/04/17 11:08:59;;;;;;;5.00;4.80;;;;;;;;;;6216878;23;20371;-65
2023/04/17 11:11:25;;;;;;;13.13;5.40;;;;;;;;;;6216727;23;20394;-65
2023/04/17 11:13:51;;;;;;;28.13;5.67;;;;;;;;;;6216938;23;20468;-65
2023/04/17 11:16:21;;;;;;;12.13;5.87;;;;;;;;;;6216883;23;20387;-65
2023/04/17 11:18:47;;;;;;;5.60;5.20;;;;;;;;;;6217780;23;20758;-67
2023/04/17 11:21:14;;;;;;;4.73;4.33;;;;;;;;;;6216412;23;20453;-65
2023/04/17 11:23:40;;;;;;;5.40;5.10;;;;;;;;;;6216843;23;20398;-65
2023/04/17 11:26:07;;;;;;;5.70;5.17;;;;;;;;;;6216784;23;20526;-66
2023/04/17 11:28:36;;;;;;;5.47;5.10;;;;;;;;;;6216402;23;20399;-76
2023/04/17 11:31:02;;;;;;;5.47;5.20;;;;;;;;;;6216272;23;20887;-66
2023/04/17 11:33:35;;;;;;;4.97;4.73;;;;;;;;;;6216751;23;20437;-66
2023/04/17 11:39:04;;;;;;;4.60;4.30;;;;;;;;;;6216429;23;20743;-66
2023/04/17 11:41:37;;;;;;;4.07;3.87;;;;;;;;;;6216466;23;20821;-67
2023/04/17 11:44:03;;;;;;;3.00;3.00;;;;;;;;;;6216217;23;20908;-66
2023/04/17 11:46:29;;;;;;;3.80;3.70;;;;;;;;;;6216482;23;20442;-66
2023/04/17 11:48:55;;;;;;;5.10;4.73;;;;;;;;;;6216757;23;20429;-66
2023/04/17 11:51:21;;;;;;;4.70;4.40;;;;;;;;;;6216044;23;20379;-66
2023/04/17 11:53:47;;;;;;;4.70;4.40;;;;;;;;;;6216200;23;20379;-66
2023/04/17 11:56:18;;;;;;;4.63;4.43;;;;;;;;;;6216608;23;20909;-67
2023/04/17 11:58:51;;;;;;;5.37;5.03;;;;;;;;;;6216400;23;20379;-70
2023/04/17 12:01:18;;;;;;;5.30;4.90;;;;;;;;;;6215909;23;20834;-67
2023/04/17 12:03:46;;;;;;;4.00;3.80;;;;;;;;;;6216158;23;20828;-66
2023/04/17 12:06:12;;;;;;;5.90;4.70;;;;;;;;;;6216403;23;20431;-64
2023/04/17 12:08:43;;;;;;;5.03;4.83;;;;;;;;;;6216061;23;20437;-67
2023/04/17 12:11:15;;;;;;;4.63;4.23;;;;;;;;;;6214098;23;20501;-66
2023/04/17 12:13:41;;;;;;;4.43;4.23;;;;;;;;;;6215934;23;20392;-66
2023/04/17 12:16:06;;;;;;;4.70;4.50;;;;;;;;;;6215823;23;20387;-68
2023/04/17 12:18:32;;;;;;;5.23;5.03;;;;;;;;;;6216089;23;20367;-64
2023/04/17 12:20:58;;;;;;;4.53;4.43;;;;;;;;;;6216081;23;20403;-66
2023/04/17 12:23:24;;;;;;;4.07;3.73;;;;;;;;;;6216126;23;20387;-66
2023/04/17 12:25:50;;;;;;;4.70;4.50;;;;;;;;;;6215938;23;20490;-65
2023/04/17 12:28:16;;;;;;;8.03;3.83;;;;;;;;;;6215834;23;20405;-68
2023/04/17 12:30:42;;;;;;;3.50;3.30;;;;;;;;;;6215886;23;20378;-66
2023/04/17 12:33:08;;;;;;;3.60;3.50;;;;;;;;;;6216039;23;20371;-67
2023/04/17 12:35:34;;;;;;;5.43;3.77;;;;;;;;;;6216174;23;20379;-66
2023/04/17 12:38:00;;;;;;;3.73;3.67;;;;;;;;;;6214204;23;20444;-68
2023/04/17 12:40:26;;;;;;;3.57;3.37;;;;;;;;;;6189590;23;20375;-65
2023/04/17 12:42:52;;;;;;;4.23;3.20;;;;;;;;;;6215499;23;20506;-66
2023/04/17 12:45:18;;;;;;;3.00;2.90;;;;;;;;;;6215849;23;20901;-66
2023/04/17 12:47:44;;;;;;;4.20;4.00;;;;;;;;;;6215547;23;20478;-66
2023/04/17 12:50:11;;;;;;;6.00;3.87;;;;;;;;;;6215697;23;20466;-65
2023/04/17 12:52:38;;;;;;;3.20;3.10;;;;;;;;;;6215645;23;20387;-66
2023/04/17 12:55:06;;;;;;;3.87;3.30;;;;;;;;;;6215921;23;20425;-66
2023/04/17 12:57:32;;;;;;;3.50;3.43;;;;;;;;;;6215549;23;20380;-66
2023/04/17 12:59:58;;;;;;;2.70;2.60;;;;;;;;;;6213906;23;20383;-66
2023/04/17 13:02:24;;;;;;;4.47;3.87;;;;;;;;;;6215925;23;20379;-66
2023/04/17 13:04:50;;;;;;;3.67;3.50;;;;;;;;;;6215360;23;20425;-66
2023/04/17 13:07:17;;;;;;;2.93;2.87;;;;;;;;;;6215710;23;20407;-65
2023/04/17 13:09:43;;;;;;;3.30;3.10;;;;;;;;;;6215748;23;20377;-66
2023/04/17 13:12:09;;;;;;;3.17;3.07;;;;;;;;;;6215407;23;20375;-66
2023/04/17 13:14:37;;;;;;;3.90;3.80;;;;;;;;;;6215505;23;20390;-66
2023/04/17 13:17:03;;;;;;;3.37;3.27;;;;;;;;;;6215846;23;20379;-66
2023/04/17 13:19:30;;;;;;;2.80;2.70;;;;;;;;;;6215819;23;20375;-66
2023/04/17 13:21:56;;;;;;;3.53;3.43;;;;;;;;;;6216423;23;20379;-66
2023/04/17 13:24:22;;;;;;;2.80;2.70;;;;;;;;;;6215694;23;20381;-66
2023/04/17 13:26:48;;;;;;;3.50;3.40;;;;;;;;;;6215680;23;20765;-67
2023/04/17 13:29:14;;;;;;;3.60;3.50;;;;;;;;;;6215443;23;20371;-66
2023/04/17 13:31:40;;;;;;;3.87;3.57;;;;;;;;;;6215637;23;20380;-66
2023/04/17 13:34:06;;;;;;;3.87;3.77;;;;;;;;;;6216069;23;20810;-65
2023/04/17 13:36:33;;;;;;;3.23;3.13;;;;;;;;;;6216008;23;20379;-66
2023/04/17 13:38:59;;;;;;;3.37;3.37;;;;;;;;;;6215376;23;20462;-66
2023/04/17 13:41:25;;;;;;;3.17;3.07;;;;;;;;;;6215375;23;20737;-65
2023/04/17 13:43:51;;;;;;;2.33;2.23;;;;;;;;;;6215108;23;20484;-65
2023/04/17 13:46:17;;;;;;;2.90;2.80;;;;;;;;;;6215625;23;20534;-66
2023/04/17 13:48:43;;;;;;;2.73;2.73;;;;;;;;;;6215291;23;20761;-65
2023/04/17 13:51:09;;;;;;;2.80;2.70;;;;;;;;;;6215671;23;20387;-66
2023/04/17 13:53:35;;;;;;;2.20;2.20;;;;;;;;;;6213746;23;20861;-66
2023/04/17 13:56:01;;;;;;;2.10;2.10;;;;;;;;;;6215905;23;20378;-65
2023/04/17 13:58:27;;;;;;;1.80;1.80;;;;;;;;;;6217333;23;20869;-66
2023/04/17 14:00:53;;;;;;;2.63;2.43;;;;;;;;;;6217179;23;20383;-66
2023/04/17 14:03:18;;;;;;;2.07;2.07;;;;;;;;;;6217151;23;20461;-65
2023/04/17 14:05:44;;;;;;;2.13;2.13;;;;;;;;;;6217125;23;20419;-67
2023/04/17 14:08:10;;;;;;;1.90;1.90;;;;;;;;;;6217182;23;20382;-65
2023/04/17 14:10:36;;;;;;;1.07;1.07;;;;;;;;;;6217036;23;20676;-66
2023/04/17 14:13:02;;;;;;;1.33;1.23;;;;;;;;;;6217121;23;20718;-66
2023/04/17 14:15:29;;;;;;;1.00;1.00;;;;;;;;;;6217104;23;20369;-66
2023/04/17 14:17:56;;;;;;;0.70;0.70;;;;;;;;;;6217112;23;20601;-66
2023/04/17 14:20:22;;;;;;;2.00;0.60;;;;;;;;;;6217020;23;20844;-66
2023/04/17 14:22:48;;;;;;;0.73;0.73;;;;;;;;;;6217070;23;20474;-66
2023/04/17 14:25:14;;;;;;;0.67;0.67;;;;;;;;;;6190901;23;20484;-66
2023/04/17 14:27:40;;;;;;;1.03;1.00;;;;;;;;;;6217368;23;20383;-66
2023/04/17 14:30:07;;;;;;;1.37;1.37;;;;;;;;;;6217304;23;20371;-66
2023/04/17 14:32:33;;;;;;;1.17;1.17;;;;;;;;;;6216912;23;20869;-66